Terminal Aerodrome Forecast
Issued by NWS Glasgow, MT

Home | Current Version | Previous Version | Text Only | Print | Product List | Glossary On
Versions: 1 2 3 4 5 6 7 8 9 10 11 12 13 14 15 16 17
441
FTUS45 KGGW 222041 AAA
TAFGGW
TAF AMD
KGGW 222041Z 2221/2318 07005KT P6SM SCT025 OVC035
     FM231200 10006KT 3SM -SHSN BR SCT008 OVC018=

USA.gov is the U.S. government's official web portal to all federal, state and local government web resources and services.